Time;durP1;ratioP1;P1;durP2;ratioP2;P2;SDS_P1;SDS_P2;PMS_P1;PMS_P2;Temp;Humidity;BMP_temperature;BMP_pressure;BME280_temperature;BME280_humidity;BME280_pressure;Samples;Min_cycle;Max_cycle;Signal;HPM_P1;HPM_P2
2022/09/19 00:01:10;;;;;;;0.85;0.50;;;7.70;99.90;;;;;;5060574;28;20397;-61
2022/09/19 00:03:37;;;;;;;0.57;0.50;;;7.70;99.90;;;;;;5059368;28;20160;-61
2022/09/19 00:06:03;;;;;;;2.17;0.50;;;7.70;99.90;;;;;;5059420;28;20028;-61
2022/09/19 00:08:29;;;;;;;0.90;0.50;;;7.80;99.90;;;;;;5061591;28;20106;-61
2022/09/19 00:10:55;;;;;;;0.57;0.40;;;7.80;99.90;;;;;;5057802;28;20424;-61
2022/09/19 00:13:20;;;;;;;1.08;0.50;;;7.80;99.90;;;;;;5061609;28;20028;-61
2022/09/19 00:15:48;;;;;;;1.40;0.60;;;7.80;99.90;;;;;;5059330;28;20089;-61
2022/09/19 00:18:15;;;;;;;1.13;0.60;;;7.80;99.90;;;;;;5060170;28;20122;-61
2022/09/19 00:20:43;;;;;;;0.68;0.52;;;7.80;99.90;;;;;;5060818;28;20464;-61
2022/09/19 00:26:06;;;;;;;1.05;0.60;;;7.80;99.90;;;;;;5059281;28;20075;-60
2022/09/19 00:28:33;;;;;;;2.22;0.60;;;7.80;99.90;;;;;;5057381;28;20052;-61
2022/09/19 00:31:00;;;;;;;3.22;0.77;;;7.80;99.90;;;;;;5061282;28;20058;-60
2022/09/19 00:33:30;;;;;;;1.80;0.70;;;7.80;99.90;;;;;;5062846;28;20048;-60
2022/09/19 00:36:03;;;;;;;2.78;0.63;;;7.80;99.90;;;;;;5058308;28;20094;-61
2022/09/19 00:38:30;;;;;;;1.38;0.73;;;7.80;99.90;;;;;;5056527;28;20028;-61
2022/09/19 00:40:57;;;;;;;3.38;0.80;;;7.80;99.90;;;;;;5061492;28;20025;-60
2022/09/19 00:43:41;;;;;;;0.88;0.52;;;7.80;99.90;;;;;;5060921;28;20025;-61
2022/09/19 00:46:07;;;;;;;4.57;0.63;;;7.70;99.90;;;;;;5057491;28;20024;-60
2022/09/19 00:48:34;;;;;;;1.40;0.52;;;7.80;99.90;;;;;;5058863;28;20067;-61
2022/09/19 00:51:01;;;;;;;2.05;0.60;;;7.80;99.90;;;;;;5060107;28;20094;-60
2022/09/19 00:53:31;;;;;;;2.15;0.60;;;7.80;99.90;;;;;;5058362;28;20029;-60
2022/09/19 00:55:57;;;;;;;13.07;1.10;;;7.80;99.90;;;;;;5062052;28;20029;-61
2022/09/19 00:58:28;;;;;;;1.17;0.60;;;7.80;99.90;;;;;;5059595;28;20037;-61
2022/09/19 01:00:55;;;;;;;;;;;7.80;99.90;;;;;;5058647;28;20025;-61
2022/09/19 01:03:24;;;;;;;1.40;0.68;;;7.80;99.90;;;;;;5057434;28;19932;-61
2022/09/19 01:06:11;;;;;;;2.50;0.95;;;7.80;99.90;;;;;;5057244;28;20496;-60
2022/09/19 01:08:58;;;;;;;1.77;0.60;;;7.80;99.90;;;;;;5057017;28;20107;-60
2022/09/19 01:11:46;;;;;;;2.17;0.55;;;7.80;99.90;;;;;;5058947;28;20051;-61
2022/09/19 01:14:37;;;;;;;0.57;0.57;;;7.80;99.90;;;;;;5057311;28;20028;-60
2022/09/19 01:17:12;;;;;;;0.88;0.73;;;7.80;99.90;;;;;;5057426;28;20024;-60
2022/09/19 01:19:41;;;;;;;0.73;0.73;;;7.80;99.90;;;;;;5056230;28;20064;-60
2022/09/19 01:22:51;;;;;;;1.23;0.40;;;7.80;99.90;;;;;;5054008;28;20031;-61
2022/09/19 01:25:26;;;;;;;1.10;0.52;;;7.80;99.90;;;;;;5056837;28;20101;-61
2022/09/19 01:28:20;;;;;;;2.25;0.60;;;7.90;99.90;;;;;;5059610;28;20012;-61
2022/09/19 01:31:21;;;;;;;1.17;0.70;;;7.90;99.90;;;;;;5062794;28;20024;-61
2022/09/19 01:34:05;;;;;;;1.60;0.70;;;7.90;99.90;;;;;;5081008;28;20038;-60
2022/09/19 01:36:38;;;;;;;0.85;0.73;;;7.90;99.90;;;;;;5079544;28;20053;-60
2022/09/19 01:39:08;;;;;;;0.65;0.50;;;7.90;99.90;;;;;;5079035;28;20024;-61
2022/09/19 01:41:34;;;;;;;1.05;0.73;;;7.90;99.90;;;;;;5079652;28;20042;-61
2022/09/19 01:44:08;;;;;;;1.35;0.80;;;7.90;99.90;;;;;;5082619;28;20086;-60
2022/09/19 01:46:39;;;;;;;0.77;0.70;;;7.90;99.90;;;;;;5079709;28;20025;-61
2022/09/19 01:49:31;;;;;;;2.83;0.70;;;7.90;99.90;;;;;;5077079;28;20105;-61
2022/09/19 01:52:35;;;;;;;0.80;0.60;;;7.90;99.90;;;;;;5085017;28;20101;-61
2022/09/19 01:55:16;;;;;;;1.17;0.70;;;7.90;99.90;;;;;;5082012;28;20075;-61
2022/09/19 01:57:47;;;;;;;;;;;7.90;99.90;;;;;;5081965;28;20123;-61
2022/09/19 02:00:22;;;;;;;0.90;0.80;;;7.90;99.90;;;;;;5082749;28;19973;-61
2022/09/19 02:03:04;;;;;;;1.00;0.80;;;7.90;99.90;;;;;;5081307;28;20095;-61
2022/09/19 02:05:50;;;;;;;3.67;0.90;;;7.90;99.90;;;;;;5079011;28;20033;-61
2022/09/19 02:08:40;;;;;;;3.60;0.70;;;8.00;99.90;;;;;;5084120;28;20036;-60
2022/09/19 02:11:17;;;;;;;1.83;0.90;;;8.00;99.90;;;;;;5080742;28;20881;-60
2022/09/19 02:13:51;;;;;;;3.75;0.93;;;7.90;99.90;;;;;;5079300;28;20040;-60
2022/09/19 02:16:24;;;;;;;1.58;0.93;;;7.90;99.90;;;;;;5083059;28;20108;-60
2022/09/19 02:19:04;;;;;;;2.90;1.00;;;7.90;99.90;;;;;;5083135;28;20028;-61
2022/09/19 02:21:36;;;;;;;1.20;0.95;;;7.90;99.90;;;;;;5082891;28;21342;-61
2022/09/19 02:24:06;;;;;;;1.90;0.80;;;7.90;99.90;;;;;;5082567;28;20403;-61
2022/09/19 02:26:33;;;;;;;1.52;1.00;;;7.90;99.90;;;;;;5081881;28;20032;-60
2022/09/19 02:29:01;;;;;;;1.10;1.00;;;7.90;99.90;;;;;;5078707;28;20036;-60
2022/09/19 02:31:27;;;;;;;2.65;1.42;;;7.90;99.90;;;;;;5080318;28;20035;-61
2022/09/19 02:33:56;;;;;;;1.15;1.05;;;7.90;99.90;;;;;;5084280;28;20029;-61
2022/09/19 02:36:40;;;;;;;1.73;0.90;;;7.90;99.90;;;;;;5076089;28;20028;-61
2022/09/19 02:39:14;;;;;;;2.17;0.90;;;7.90;99.90;;;;;;5082883;28;20562;-60
2022/09/19 02:42:03;;;;;;;0.93;0.80;;;7.90;99.90;;;;;;5082317;28;20073;-60
2022/09/19 02:44:54;;;;;;;1.48;1.02;;;7.90;99.90;;;;;;5081139;28;20029;-60
2022/09/19 02:47:26;;;;;;;8.35;1.10;;;7.90;99.90;;;;;;5083094;28;20102;-60
2022/09/19 02:50:03;;;;;;;1.20;1.00;;;8.00;99.90;;;;;;5081638;28;20086;-60
2022/09/19 02:52:33;;;;;;;2.67;1.00;;;8.00;99.90;;;;;;5080932;28;20021;-60
2022/09/19 02:55:22;;;;;;;2.65;1.00;;;8.00;99.90;;;;;;5082177;28;20013;-60
2022/09/19 02:57:51;;;;;;;2.35;1.00;;;8.00;99.90;;;;;;5081257;28;20158;-60
2022/09/19 03:00:17;;;;;;;1.83;1.10;;;8.00;99.90;;;;;;5076932;28;20035;-60
2022/09/19 03:02:48;;;;;;;1.63;1.17;;;8.00;99.90;;;;;;5079618;28;20028;-60
2022/09/19 03:05:19;;;;;;;3.13;1.20;;;8.00;99.90;;;;;;5079683;28;20048;-60
2022/09/19 03:07:54;;;;;;;1.27;1.10;;;8.00;99.90;;;;;;5078843;28;20456;-60
2022/09/19 03:10:25;;;;;;;2.55;1.30;;;8.00;99.90;;;;;;5077860;28;20050;-60
2022/09/19 03:12:58;;;;;;;2.10;1.20;;;8.00;99.90;;;;;;5079374;28;20031;-60
2022/09/19 03:15:56;;;;;;;2.97;1.33;;;8.00;99.90;;;;;;5080962;28;20369;-60
2022/09/19 03:18:23;;;;;;;2.55;1.67;;;8.00;99.90;;;;;;5082488;28;20031;-60
2022/09/19 03:20:54;;;;;;;3.53;1.70;;;8.10;99.90;;;;;;5078634;28;20100;-60
2022/09/19 03:23:25;;;;;;;2.92;1.40;;;8.10;99.90;;;;;;5080119;28;20021;-60
2022/09/19 03:25:51;;;;;;;2.15;1.40;;;8.10;99.90;;;;;;5081825;28;20387;-60
2022/09/19 03:28:19;;;;;;;3.25;1.60;;;8.00;99.90;;;;;;5080098;28;20016;-60
2022/09/19 03:30:46;;;;;;;1.83;1.50;;;8.10;99.90;;;;;;5080953;28;20502;-60
2022/09/19 03:33:15;;;;;;;3.83;2.17;;;8.10;99.90;;;;;;5081238;28;20039;-60
2022/09/19 03:35:42;;;;;;;2.80;1.38;;;8.10;99.90;;;;;;5078850;28;20036;-61
2022/09/19 03:38:08;;;;;;;2.35;1.55;;;8.10;99.90;;;;;;5085484;28;20044;-61
2022/09/19 03:40:34;;;;;;;2.83;1.40;;;8.10;99.90;;;;;;5080737;28;20032;-60
2022/09/19 03:43:00;;;;;;;2.75;1.35;;;8.20;99.90;;;;;;5082086;28;20024;-64
2022/09/19 03:45:26;;;;;;;2.40;1.70;;;8.10;99.90;;;;;;5079824;28;20027;-61
2022/09/19 03:47:52;;;;;;;2.50;1.50;;;8.20;99.90;;;;;;5079613;28;20028;-61
2022/09/19 03:50:18;;;;;;;3.05;1.60;;;8.20;99.90;;;;;;5081659;28;20032;-60
2022/09/19 03:52:47;;;;;;;3.22;1.42;;;8.20;99.90;;;;;;5076844;28;20035;-61
2022/09/19 03:55:13;;;;;;;1.70;1.40;;;8.20;99.90;;;;;;5078842;28;20020;-60
2022/09/19 03:57:39;;;;;;;5.13;2.70;;;8.30;99.90;;;;;;5075629;28;20033;-60
2022/09/19 04:00:06;;;;;;;3.33;2.00;;;8.20;99.90;;;;;;5075761;28;20028;-61
2022/09/19 04:02:32;;;;;;;1.60;1.40;;;8.30;99.90;;;;;;5078544;28;20036;-60
2022/09/19 04:04:58;;;;;;;2.05;1.30;;;8.20;99.90;;;;;;5079038;28;20582;-61
2022/09/19 04:07:27;;;;;;;1.80;1.55;;;8.20;99.90;;;;;;5079567;28;20032;-60
2022/09/19 04:09:54;;;;;;;2.28;1.42;;;8.20;99.90;;;;;;5077778;28;20046;-61
2022/09/19 04:12:20;;;;;;;3.15;1.40;;;8.20;99.90;;;;;;5077543;28;20032;-60
2022/09/19 04:14:46;;;;;;;1.55;1.45;;;8.20;99.90;;;;;;5083211;28;20032;-60
2022/09/19 04:17:13;;;;;;;1.50;1.40;;;8.30;99.90;;;;;;5081661;28;20487;-60
2022/09/19 04:19:40;;;;;;;2.92;1.60;;;8.20;99.90;;;;;;5080855;28;20116;-61
2022/09/19 04:22:05;;;;;;;2.03;1.60;;;8.30;99.90;;;;;;5082087;28;20028;-61
2022/09/19 04:24:31;;;;;;;1.35;1.17;;;8.30;99.90;;;;;;5078466;28;20077;-61
2022/09/19 04:26:59;;;;;;;2.85;1.30;;;8.30;99.90;;;;;;5083888;28;20036;-61
2022/09/19 04:29:27;;;;;;;4.30;2.33;;;8.30;99.90;;;;;;5078945;28;20081;-61
2022/09/19 04:31:54;;;;;;;1.77;1.30;;;8.30;99.90;;;;;;5079129;28;20040;-61
2022/09/19 04:34:20;;;;;;;2.78;1.58;;;8.40;99.90;;;;;;5082704;28;20030;-61
2022/09/19 04:36:51;;;;;;;2.00;1.20;;;8.40;99.90;;;;;;5082329;28;20387;-61
2022/09/19 04:39:17;;;;;;;1.30;1.20;;;8.40;99.90;;;;;;5080493;28;20039;-60
2022/09/19 04:41:43;;;;;;;2.25;1.48;;;8.40;99.90;;;;;;5077878;28;20037;-61
2022/09/19 04:44:10;;;;;;;2.85;1.50;;;8.40;99.90;;;;;;5078641;28;20028;-60
2022/09/19 04:46:41;;;;;;;1.45;1.35;;;8.40;99.90;;;;;;5061533;28;20397;-60
2022/09/19 04:49:07;;;;;;;1.83;1.58;;;8.40;99.90;;;;;;5078979;28;20031;-60
2022/09/19 04:51:33;;;;;;;3.70;1.75;;;8.40;99.90;;;;;;5078968;28;20035;-60
2022/09/19 04:54:00;;;;;;;2.30;1.52;;;8.40;99.90;;;;;;5077716;28;20024;-60
2022/09/19 04:56:27;;;;;;;2.83;1.67;;;8.40;99.90;;;;;;5081233;28;20036;-60
2022/09/19 04:58:53;;;;;;;3.38;2.35;;;8.40;99.90;;;;;;5079455;28;20459;-60
2022/09/19 05:01:18;;;;;;;3.67;3.30;;;8.40;99.90;;;;;;5082149;28;20071;-61
2022/09/19 05:03:44;;;;;;;2.80;2.20;;;8.40;99.90;;;;;;5082122;28;20027;-61
2022/09/19 05:06:11;;;;;;;2.55;2.20;;;8.40;99.90;;;;;;5081106;28;20118;-60
2022/09/19 05:08:37;;;;;;;3.53;2.88;;;8.40;99.90;;;;;;5083831;28;20029;-60
2022/09/19 05:11:05;;;;;;;4.22;2.10;;;8.40;99.90;;;;;;5083840;28;20031;-60
2022/09/19 05:13:34;;;;;;;3.58;1.88;;;8.40;99.90;;;;;;5082283;28;20025;-60
2022/09/19 05:16:00;;;;;;;4.93;1.73;;;8.40;99.90;;;;;;5081131;28;20074;-60
2022/09/19 05:18:27;;;;;;;4.40;2.13;;;8.50;99.90;;;;;;5079357;28;20459;-61
2022/09/19 05:20:54;;;;;;;2.40;2.20;;;8.50;99.90;;;;;;5081415;28;20514;-60
2022/09/19 05:23:24;;;;;;;2.47;2.28;;;8.50;99.90;;;;;;5083348;28;20028;-60
2022/09/19 05:25:54;;;;;;;2.53;2.00;;;8.50;99.90;;;;;;5082806;28;20077;-60
2022/09/19 05:28:26;;;;;;;4.63;3.35;;;8.60;99.90;;;;;;5081254;28;20255;-60
2022/09/19 05:30:55;;;;;;;4.38;3.97;;;8.60;99.90;;;;;;5083782;28;20028;-60
2022/09/19 05:33:26;;;;;;;4.22;3.83;;;8.50;99.90;;;;;;5082310;28;20040;-60
2022/09/19 05:35:52;;;;;;;5.15;4.40;;;8.50;99.90;;;;;;5081307;28;20029;-60
2022/09/19 05:38:18;;;;;;;4.57;3.13;;;8.60;99.90;;;;;;5078496;28;20586;-60
2022/09/19 05:40:44;;;;;;;4.05;2.58;;;8.50;99.90;;;;;;5083613;28;20029;-60
2022/09/19 05:43:10;;;;;;;7.97;2.80;;;8.60;99.90;;;;;;5082935;28;20494;-60
2022/09/19 05:45:37;;;;;;;3.08;2.40;;;8.60;99.90;;;;;;5063943;28;20028;-60
2022/09/19 05:48:05;;;;;;;5.30;3.40;;;8.70;99.90;;;;;;5083540;28;20074;-60
2022/09/19 05:50:32;;;;;;;2.92;2.70;;;8.70;99.90;;;;;;5083376;28;20456;-60
2022/09/19 05:55:42;;;;;;;2.65;2.38;;;8.70;99.90;;;;;;5084431;28;20043;-60
2022/09/19 05:58:09;;;;;;;2.85;2.40;;;8.80;99.90;;;;;;5079196;28;20029;-61
2022/09/19 06:00:37;;;;;;;3.22;2.15;;;8.80;99.90;;;;;;5083675;28;20017;-61
2022/09/19 06:03:04;;;;;;;3.40;1.75;;;8.80;99.90;;;;;;5085974;28;20036;-60
2022/09/19 06:05:36;;;;;;;24.50;15.70;;;8.80;99.90;;;;;;5082274;28;20389;-60
2022/09/19 06:08:04;;;;;;;3.17;2.50;;;8.90;99.90;;;;;;5073740;28;20045;-60
2022/09/19 06:10:34;;;;;;;4.78;4.05;;;8.90;99.90;;;;;;5080261;28;20051;-61
2022/09/19 06:13:00;;;;;;;3.80;3.50;;;9.00;99.90;;;;;;5077772;28;20024;-60
2022/09/19 06:15:25;;;;;;;13.70;12.70;;;9.00;99.90;;;;;;5083499;28;20044;-60
2022/09/19 06:17:58;;;;;;;18.65;17.48;;;9.10;99.90;;;;;;5081932;28;20480;-60
